• Join FlightAware (Why Join?)
  • Login
  • US Flag 
04:43AM EDT


 

Airport Tracker/Info


-or-


 

Live Flight TrackerFlight Track Log ✈ AIE860 ✈ 29-Apr-2013 ✈ CYKG - CYGL

Flight Track Log - Related Links

Times and Time Zones

All times are in EDT time to prevent confusion due to time zone crossing. See the AIE860 flight status page for this flight to view local times or setup timezone preferences in your user account.

Time Position Orientation Groundspeed Altitude Reporting Facility
EDT Latitude Longitude Course Direction KTS MPH feet Rate Location/Type
12:17PM 60.3773 -72.9852 204° Southwest  Level FlightAware Approximate
12:18PM 60.3171 -73.0386 204° Southwest  Level FlightAware Approximate
12:19PM 60.2569 -73.0915 203° Southwest  Level FlightAware Approximate
12:20PM 60.1964 -73.1425 203° Southwest  Level FlightAware Approximate
12:21PM 60.1357 -73.1934 203° Southwest  Level FlightAware Approximate
12:22PM 60.0751 -73.2440 203° Southwest  Level FlightAware Approximate
12:23PM 60.0145 -73.2944 203° Southwest  Level FlightAware Approximate
12:24PM 59.9538 -73.3447 203° Southwest  Level FlightAware Approximate
12:25PM 59.8931 -73.3948 202° Southwest  Level FlightAware Approximate
12:26PM 59.8324 -73.4446 202° Southwest  Level FlightAware Approximate
12:27PM 59.7717 -73.4943 202° Southwest  Level FlightAware Approximate
12:28PM 59.7109 -73.5439 202° Southwest  Level FlightAware Approximate
12:29PM 59.6502 -73.5932 202° Southwest  Level FlightAware Approximate
12:29PM 60.0333 -73.2333 202° Southwest 240 276 24,000  Level Montreal Center
12:30PM 59.5894 -73.6424 202° Southwest  Level FlightAware Approximate
12:30PM 59.9667 -73.2667 194° South 250 288 24,000  Level Montreal Center
12:31PM 59.5286 -73.6914 202° Southwest  Level FlightAware Approximate
12:31PM 59.9000 -73.3500 212° Southwest 240 276 24,000  Level Montreal Center
12:32PM 59.4678 -73.7402 202° Southwest  Level FlightAware Approximate
12:32PM 59.8333 -73.3833 194° South 260 299 24,000  Level Montreal Center
12:33PM 59.4070 -73.7888 202° Southwest  Level FlightAware Approximate
12:33PM 59.7667 -73.4500 207° Southwest 250 288 24,000  Level Montreal Center
12:34PM 59.3461 -73.8373 202° Southwest  Level FlightAware Approximate
12:34PM 59.7000 -73.5000 201° Southwest 250 288 24,000  Level Montreal Center
12:35PM 59.2853 -73.8856 202° Southwest  Level FlightAware Approximate
12:35PM 59.6500 -73.5667 214° Southwest 250 288 24,000  Level Montreal Center
12:36PM 59.6000 -73.6000 199° South 240 276 24,000  Level Montreal Center
12:37PM 59.5333 -73.6333 194° South 250 288 24,000  Level Montreal Center
12:38PM 59.4667 -73.7167 212° Southwest 250 288 24,000  Level Montreal Center
12:39PM 59.4000 -73.7500 194° South 250 288 24,000  Level Montreal Center
12:40PM 59.3333 -73.8167 207° Southwest 250 288 24,000  Level Montreal Center
12:41PM 59.2833 -73.8500 199° South 250 288 24,000  Level Montreal Center
12:42PM 59.2167 -73.9000 201° Southwest 240 276 24,000  Level Montreal Center
12:43PM 59.1500 -73.9667 207° Southwest 250 288 24,000  Level Montreal Center
12:44PM 59.0833 -74.0000 194° South 240 276 24,000  Level Montreal Center
12:45PM 59.0167 -74.0667 207° Southwest 240 276 24,000  Level Montreal Center
12:46PM 58.9500 -74.1000 194° South 240 276 24,000  Level Montreal Center
12:47PM 58.9000 -74.1667 215° Southwest 250 288 24,000  Level Montreal Center
12:48PM 58.8333 -74.2000 195° South 240 276 24,000  Level Montreal Center
12:49PM 58.7667 -74.2667 207° Southwest 240 276 24,000  Level Montreal Center
12:50PM 58.7000 -74.3167 201° Southwest 240 276 24,000  Level Montreal Center
12:51PM 58.6333 -74.3500 195° South 240 276 24,000  Level Montreal Center
12:52PM 58.5833 -74.4167 215° Southwest 240 276 24,000  Level Montreal Center
12:53PM 58.5167 -74.4500 195° South 240 276 24,000  Level Montreal Center
12:55PM 58.4323 -74.5146 202° Southwest  Level FlightAware Approximate
01:02PM 58.0051 -74.8366 202° Southwest  Level FlightAware Approximate
01:03PM 57.9440 -74.8820 202° Southwest  Level FlightAware Approximate
01:04PM 57.8829 -74.9272 201° Southwest  Level FlightAware Approximate
01:05PM 57.8217 -74.9723 201° Southwest  Level FlightAware Approximate
01:06PM 57.7606 -75.0172 201° Southwest  Level FlightAware Approximate
01:07PM 57.6994 -75.0620 201° Southwest  Level FlightAware Approximate
01:08PM 57.6382 -75.1066 201° Southwest  Level FlightAware Approximate
01:09PM 57.5771 -75.1511 201° Southwest  Level FlightAware Approximate
01:10PM 57.5159 -75.1954 201° Southwest  Level FlightAware Approximate
01:11PM 57.4546 -75.2396 201° Southwest  Level FlightAware Approximate
01:12PM 57.3934 -75.2836 201° Southwest  Level FlightAware Approximate
01:13PM 57.3321 -75.3275 201° Southwest  Level FlightAware Approximate
01:14PM 57.2709 -75.3712 201° Southwest  Level FlightAware Approximate
01:15PM 57.2096 -75.4148 201° Southwest  Level FlightAware Approximate
01:16PM 57.1483 -75.4582 201° Southwest  Level FlightAware Approximate
01:17PM 57.0869 -75.5015 201° Southwest  Level FlightAware Approximate
01:18PM 57.0256 -75.5447 201° Southwest  Level FlightAware Approximate
01:19PM 56.9643 -75.5877 201° Southwest  Level FlightAware Approximate
01:20PM 56.9029 -75.6305 201° Southwest  Level FlightAware Approximate
01:21PM 56.8415 -75.6733 201° Southwest  Level FlightAware Approximate
01:22PM 56.7801 -75.7159 201° Southwest  Level FlightAware Approximate
01:23PM 56.7187 -75.7583 201° Southwest  Level FlightAware Approximate
01:24PM 56.6573 -75.8006 201° Southwest  Level FlightAware Approximate
01:25PM 56.5959 -75.8428 201° Southwest  Level FlightAware Approximate
01:26PM 56.5344 -75.8848 201° Southwest  Level FlightAware Approximate
01:27PM 56.4730 -75.9267 201° Southwest  Level FlightAware Approximate
01:28PM 56.4115 -75.9685 201° Southwest  Level FlightAware Approximate
01:29PM 56.3500 -76.0101 201° Southwest  Level FlightAware Approximate
01:30PM 56.2885 -76.0516 201° Southwest  Level FlightAware Approximate
01:31PM 56.2270 -76.0930 200° South  Level FlightAware Approximate
01:31PM 56.2000 -76.1167 200° South 260 299 24,000  Level Montreal Center
01:32PM 56.1655 -76.1342 200° South  Level FlightAware Approximate
01:32PM 56.1333 -76.1500 196° South 230 265 24,000  Level Montreal Center
01:33PM 56.1039 -76.1753 200° South  Level FlightAware Approximate
01:33PM 56.0833 -76.1667 191° South 230 265 24,000  Level Montreal Center
01:34PM 56.0423 -76.2163 200° South  Level FlightAware Approximate
01:34PM 56.0167 -76.2333 209° Southwest 220 253 24,000  Level Montreal Center
01:35PM 55.9809 -76.2564 200° South  Level FlightAware Approximate
01:35PM 55.9667 -76.2667 200° South 230 265 24,000  Level Montreal Center
01:36PM 55.9191 -76.2962 200° South  Level FlightAware Approximate
01:36PM 55.9000 -76.3000 196° South 230 265 24,000  Level Montreal Center
01:37PM 55.8573 -76.3359 200° South  Level FlightAware Approximate
01:37PM 55.8500 -76.3500 209° Southwest 230 265 24,000  Level Montreal Center
01:38PM 55.7833 -76.3833 196° South 230 265 24,000  Level Montreal Center
01:39PM 55.7167 -76.4167 196° South 230 265 24,000  Level Montreal Center
01:40PM 55.6667 -76.4667 209° Southwest 230 265 24,000  Level Montreal Center
01:41PM 55.6000 -76.5000 196° South 230 265 24,000  Level Montreal Center
01:42PM 55.5500 -76.5333 201° Southwest 230 265 24,000  Level Montreal Center
01:43PM 55.4833 -76.5833 203° Southwest 230 265 24,000  Level Montreal Center
01:44PM 55.4167 -76.6167 196° South 230 265 24,000  Level Montreal Center
01:45PM 55.3667 -76.6500 201° Southwest 230 265 24,000  Level Montreal Center
01:46PM 55.2833 -76.7000 199° South 230 265 24,000  Level Montreal Center
01:47PM 55.2333 -76.7333 201° Southwest 230 265 24,000  Level Montreal Center
01:48PM 55.1667 -76.7500 188° South 230 265 24,000  Level Montreal Center
01:49PM 55.1167 -76.8167 217° Southwest 230 265 24,000 -420 Level Montreal Center
01:50PM 55.0500 -76.8500 196° South 240 276 23,200 -1,020 Descending Montreal Center
01:51PM 54.9833 -76.8667 188° South 260 299 22,000 -1,200 Descending Montreal Center
01:52PM 54.9167 -76.9333 210° Southwest 270 311 20,900 -1,200 Descending Montreal Center
01:53PM 54.8500 -76.9833 203° Southwest 260 299 19,700 -1,260 Descending Montreal Center
01:54PM 54.7667 -77.0167 193° South 270 311 18,400 -1,200 Descending Montreal Center
01:55PM 54.7000 -77.0667 203° Southwest 270 311 17,300 -1,200 Descending Montreal Center
01:56PM 54.6333 -77.1000 196° South 270 311 16,100 -1,200 Descending Montreal Center
01:57PM 54.5667 -77.1500 204° Southwest 270 311 14,900 -1,200 Descending Montreal Center
01:58PM 54.5000 -77.1833 196° South 260 299 13,800 -1,140 Descending Montreal Center
01:59PM 54.4333 -77.2333 204° Southwest 250 288 12,700 -1,080 Descending Montreal Center
02:00PM 54.3667 -77.2667 196° South 240 276 11,700 -960 Descending Montreal Center
02:01PM 54.3167 -77.3167 210° Southwest 230 265 10,800 -960 Descending Montreal Center
02:02PM 54.2667 -77.3500 201° Southwest 220 253 9,800 -900 Descending Montreal Center
02:03PM 54.1833 -77.3667 187° South 210 242 9,000 -900 Descending Montreal Center
02:04PM 54.1333 -77.4000 201° Southwest 210 242 8,100 -900 Descending Montreal Center
02:05PM 54.0833 -77.4333 201° Southwest 210 242 7,200 -900 Descending Montreal Center
02:06PM 54.0333 -77.4833 210° Southwest 210 242 6,300 -960 Descending Montreal Center
02:07PM 53.9667 -77.5167 196° South 210 242 5,300 -1,020 Descending Montreal Center
02:08PM 53.9167 -77.5333 191° South 220 253 4,300 -1,020 Descending Montreal Center
02:09PM 53.8500 -77.5833 204° Southwest 220 253 3,300 -1,020 Descending Montreal Center
02:10PM 53.8000 -77.6167 201° Southwest 210 242 2,300 -1,020 Descending Montreal Center
02:12PM 53.7266 -77.6343 204° Southwest  Level FlightAware Approximate
02:19PM 53.6167 -77.7000 197° South  Level FlightAware Approximate
02:20PM 53.6253 -77.7042 197° South  Level Estimated
02:21PM 53.6253 -77.7042 197° South  Level Estimated
02:22PM 53.6253 -77.7042 197° South  Level Estimated